sensor_id;sensor_type;location;lat;lon;timestamp;P1;durP1;ratioP1;P2;durP2;ratioP2
50122;SDS011;36021;48.670;6.184;2022-11-20T00:00:47;3.72;;;2.22;;
50122;SDS011;36021;48.670;6.184;2022-11-20T00:03:13;4.28;;;2.28;;
50122;SDS011;36021;48.670;6.184;2022-11-20T00:05:38;5.57;;;2.03;;
50122;SDS011;36021;48.670;6.184;2022-11-20T00:08:04;3.85;;;2.00;;
50122;SDS011;36021;48.670;6.184;2022-11-20T00:10:31;3.42;;;1.95;;
50122;SDS011;36021;48.670;6.184;2022-11-20T00:12:57;5.00;;;2.30;;
50122;SDS011;36021;48.670;6.184;2022-11-20T00:15:24;4.78;;;2.13;;
50122;SDS011;36021;48.670;6.184;2022-11-20T00:17:50;6.63;;;2.13;;
50122;SDS011;36021;48.670;6.184;2022-11-20T00:20:16;6.90;;;2.60;;
50122;SDS011;36021;48.670;6.184;2022-11-20T00:22:41;4.43;;;2.00;;
50122;SDS011;36021;48.670;6.184;2022-11-20T00:25:07;3.60;;;2.30;;
50122;SDS011;36021;48.670;6.184;2022-11-20T00:27:33;4.30;;;2.08;;
50122;SDS011;36021;48.670;6.184;2022-11-20T00:29:58;3.88;;;2.00;;
50122;SDS011;36021;48.670;6.184;2022-11-20T00:32:24;3.45;;;2.05;;
50122;SDS011;36021;48.670;6.184;2022-11-20T00:34:50;3.22;;;2.05;;
50122;SDS011;36021;48.670;6.184;2022-11-20T00:37:15;3.72;;;2.25;;
50122;SDS011;36021;48.670;6.184;2022-11-20T00:39:41;9.45;;;3.72;;
50122;SDS011;36021;48.670;6.184;2022-11-20T00:42:06;4.38;;;2.45;;
50122;SDS011;36021;48.670;6.184;2022-11-20T00:44:32;4.75;;;2.20;;
50122;SDS011;36021;48.670;6.184;2022-11-20T00:46:58;4.07;;;2.15;;
50122;SDS011;36021;48.670;6.184;2022-11-20T00:49:23;3.78;;;1.70;;
50122;SDS011;36021;48.670;6.184;2022-11-20T00:51:49;4.13;;;1.90;;
50122;SDS011;36021;48.670;6.184;2022-11-20T00:54:14;3.30;;;1.55;;
50122;SDS011;36021;48.670;6.184;2022-11-20T00:56:40;4.43;;;2.05;;
50122;SDS011;36021;48.670;6.184;2022-11-20T00:59:08;2.50;;;1.45;;
50122;SDS011;36021;48.670;6.184;2022-11-20T01:01:35;2.67;;;1.77;;
50122;SDS011;36021;48.670;6.184;2022-11-20T01:04:01;2.78;;;1.48;;
50122;SDS011;36021;48.670;6.184;2022-11-20T01:06:31;6.53;;;1.40;;
50122;SDS011;36021;48.670;6.184;2022-11-20T01:09:00;3.17;;;2.10;;
50122;SDS011;36021;48.670;6.184;2022-11-20T01:13:56;1.63;;;1.27;;
50122;SDS011;36021;48.670;6.184;2022-11-20T01:16:26;2.28;;;1.58;;
50122;SDS011;36021;48.670;6.184;2022-11-20T01:19:03;4.00;;;1.50;;
50122;SDS011;36021;48.670;6.184;2022-11-20T01:21:31;2.33;;;1.08;;
50122;SDS011;36021;48.670;6.184;2022-11-20T01:23:59;2.67;;;1.73;;
50122;SDS011;36021;48.670;6.184;2022-11-20T01:26:26;6.35;;;1.77;;
50122;SDS011;36021;48.670;6.184;2022-11-20T01:28:54;2.95;;;1.67;;
50122;SDS011;36021;48.670;6.184;2022-11-20T01:31:28;3.67;;;1.70;;
50122;SDS011;36021;48.670;6.184;2022-11-20T01:33:57;3.42;;;1.63;;
50122;SDS011;36021;48.670;6.184;2022-11-20T01:36:26;4.82;;;1.00;;
50122;SDS011;36021;48.670;6.184;2022-11-20T01:38:54;3.03;;;1.48;;
50122;SDS011;36021;48.670;6.184;2022-11-20T01:41:23;2.42;;;1.33;;
50122;SDS011;36021;48.670;6.184;2022-11-20T01:44:08;2.40;;;1.60;;
50122;SDS011;36021;48.670;6.184;2022-11-20T01:46:37;2.92;;;1.40;;
50122;SDS011;36021;48.670;6.184;2022-11-20T01:49:08;3.28;;;1.38;;
50122;SDS011;36021;48.670;6.184;2022-11-20T01:54:06;3.20;;;1.45;;
50122;SDS011;36021;48.670;6.184;2022-11-20T01:56:40;2.63;;;1.63;;
50122;SDS011;36021;48.670;6.184;2022-11-20T01:59:10;2.63;;;1.50;;
50122;SDS011;36021;48.670;6.184;2022-11-20T02:04:04;3.30;;;1.65;;
50122;SDS011;36021;48.670;6.184;2022-11-20T02:06:35;3.08;;;1.40;;
50122;SDS011;36021;48.670;6.184;2022-11-20T02:09:07;1.67;;;1.23;;
50122;SDS011;36021;48.670;6.184;2022-11-20T02:11:33;5.88;;;1.48;;
50122;SDS011;36021;48.670;6.184;2022-11-20T02:13:59;2.17;;;1.33;;
50122;SDS011;36021;48.670;6.184;2022-11-20T02:16:30;2.15;;;1.38;;
50122;SDS011;36021;48.670;6.184;2022-11-20T02:19:00;3.17;;;2.03;;
50122;SDS011;36021;48.670;6.184;2022-11-20T02:21:45;1.43;;;1.33;;
50122;SDS011;36021;48.670;6.184;2022-11-20T02:24:20;3.83;;;1.50;;
50122;SDS011;36021;48.670;6.184;2022-11-20T02:29:19;2.55;;;1.38;;
50122;SDS011;36021;48.670;6.184;2022-11-20T02:31:51;1.63;;;1.15;;
50122;SDS011;36021;48.670;6.184;2022-11-20T02:34:17;4.60;;;1.60;;
50122;SDS011;36021;48.670;6.184;2022-11-20T02:36:43;3.53;;;1.80;;
50122;SDS011;36021;48.670;6.184;2022-11-20T02:39:11;3.83;;;1.60;;
50122;SDS011;36021;48.670;6.184;2022-11-20T02:41:38;2.67;;;1.50;;
50122;SDS011;36021;48.670;6.184;2022-11-20T02:44:05;3.50;;;1.40;;
50122;SDS011;36021;48.670;6.184;2022-11-20T02:46:31;2.28;;;1.63;;
50122;SDS011;36021;48.670;6.184;2022-11-20T02:48:57;2.03;;;1.40;;
50122;SDS011;36021;48.670;6.184;2022-11-20T02:51:23;5.63;;;1.65;;
50122;SDS011;36021;48.670;6.184;2022-11-20T02:53:49;2.13;;;1.60;;
50122;SDS011;36021;48.670;6.184;2022-11-20T02:56:16;2.50;;;1.73;;
50122;SDS011;36021;48.670;6.184;2022-11-20T02:58:42;3.38;;;1.55;;
50122;SDS011;36021;48.670;6.184;2022-11-20T03:01:08;4.32;;;2.00;;
50122;SDS011;36021;48.670;6.184;2022-11-20T03:03:33;4.45;;;1.98;;
50122;SDS011;36021;48.670;6.184;2022-11-20T03:05:59;3.47;;;1.65;;
50122;SDS011;36021;48.670;6.184;2022-11-20T03:08:25;2.63;;;1.27;;
50122;SDS011;36021;48.670;6.184;2022-11-20T03:10:51;3.25;;;1.88;;
50122;SDS011;36021;48.670;6.184;2022-11-20T03:13:19;2.38;;;1.38;;
50122;SDS011;36021;48.670;6.184;2022-11-20T03:15:46;4.60;;;1.67;;
50122;SDS011;36021;48.670;6.184;2022-11-20T03:18:12;1.77;;;1.42;;
50122;SDS011;36021;48.670;6.184;2022-11-20T03:20:38;2.97;;;1.63;;
50122;SDS011;36021;48.670;6.184;2022-11-20T03:23:04;2.67;;;2.00;;
50122;SDS011;36021;48.670;6.184;2022-11-20T03:25:30;3.83;;;1.90;;
50122;SDS011;36021;48.670;6.184;2022-11-20T03:27:55;1.92;;;1.23;;
50122;SDS011;36021;48.670;6.184;2022-11-20T03:30:21;2.08;;;1.23;;
50122;SDS011;36021;48.670;6.184;2022-11-20T03:32:47;3.97;;;1.50;;
50122;SDS011;36021;48.670;6.184;2022-11-20T03:35:15;2.28;;;1.55;;
50122;SDS011;36021;48.670;6.184;2022-11-20T03:37:40;1.33;;;1.08;;
50122;SDS011;36021;48.670;6.184;2022-11-20T03:40:06;1.58;;;0.95;;
50122;SDS011;36021;48.670;6.184;2022-11-20T03:42:32;2.00;;;1.60;;
50122;SDS011;36021;48.670;6.184;2022-11-20T03:45:10;1.65;;;1.38;;
50122;SDS011;36021;48.670;6.184;2022-11-20T03:47:36;1.98;;;1.40;;
50122;SDS011;36021;48.670;6.184;2022-11-20T03:50:02;3.65;;;1.50;;
50122;SDS011;36021;48.670;6.184;2022-11-20T03:52:28;2.78;;;1.42;;
50122;SDS011;36021;48.670;6.184;2022-11-20T03:54:54;1.67;;;1.10;;
50122;SDS011;36021;48.670;6.184;2022-11-20T03:57:20;3.15;;;1.17;;
50122;SDS011;36021;48.670;6.184;2022-11-20T03:59:47;3.15;;;1.40;;
50122;SDS011;36021;48.670;6.184;2022-11-20T04:02:12;1.48;;;1.30;;
50122;SDS011;36021;48.670;6.184;2022-11-20T04:04:38;3.35;;;1.20;;
50122;SDS011;36021;48.670;6.184;2022-11-20T04:07:03;2.80;;;1.20;;
50122;SDS011;36021;48.670;6.184;2022-11-20T04:09:29;3.30;;;1.52;;
50122;SDS011;36021;48.670;6.184;2022-11-20T04:11:54;2.85;;;1.63;;
50122;SDS011;36021;48.670;6.184;2022-11-20T04:14:21;3.28;;;1.38;;
50122;SDS011;36021;48.670;6.184;2022-11-20T04:16:49;2.80;;;1.90;;
50122;SDS011;36021;48.670;6.184;2022-11-20T04:19:15;4.80;;;1.77;;
50122;SDS011;36021;48.670;6.184;2022-11-20T04:21:42;2.30;;;1.65;;
50122;SDS011;36021;48.670;6.184;2022-11-20T04:24:09;1.83;;;1.38;;
50122;SDS011;36021;48.670;6.184;2022-11-20T04:26:35;4.97;;;2.03;;
50122;SDS011;36021;48.670;6.184;2022-11-20T04:29:01;4.22;;;1.80;;
50122;SDS011;36021;48.670;6.184;2022-11-20T04:31:29;3.72;;;2.20;;
50122;SDS011;36021;48.670;6.184;2022-11-20T04:33:59;1.83;;;1.52;;
50122;SDS011;36021;48.670;6.184;2022-11-20T04:36:26;3.42;;;1.65;;
50122;SDS011;36021;48.670;6.184;2022-11-20T04:38:57;3.88;;;1.67;;
50122;SDS011;36021;48.670;6.184;2022-11-20T04:41:26;1.88;;;1.33;;
50122;SDS011;36021;48.670;6.184;2022-11-20T04:43:54;2.58;;;1.27;;
50122;SDS011;36021;48.670;6.184;2022-11-20T04:46:28;3.13;;;1.30;;
50122;SDS011;36021;48.670;6.184;2022-11-20T04:48:56;2.13;;;0.98;;
50122;SDS011;36021;48.670;6.184;2022-11-20T04:51:22;2.20;;;1.13;;
50122;SDS011;36021;48.670;6.184;2022-11-20T04:53:48;2.15;;;1.52;;
50122;SDS011;36021;48.670;6.184;2022-11-20T04:56:15;6.35;;;2.03;;
50122;SDS011;36021;48.670;6.184;2022-11-20T04:58:42;2.50;;;1.38;;
50122;SDS011;36021;48.670;6.184;2022-11-20T05:01:15;6.07;;;1.80;;
50122;SDS011;36021;48.670;6.184;2022-11-20T05:03:45;2.85;;;1.70;;
50122;SDS011;36021;48.670;6.184;2022-11-20T05:06:12;4.25;;;2.10;;
50122;SDS011;36021;48.670;6.184;2022-11-20T05:08:40;5.30;;;2.30;;
50122;SDS011;36021;48.670;6.184;2022-11-20T05:11:11;5.15;;;1.88;;
50122;SDS011;36021;48.670;6.184;2022-11-20T05:13:38;1.70;;;1.60;;
50122;SDS011;36021;48.670;6.184;2022-11-20T05:16:05;3.97;;;1.67;;
50122;SDS011;36021;48.670;6.184;2022-11-20T05:18:35;3.90;;;2.03;;
50122;SDS011;36021;48.670;6.184;2022-11-20T05:21:02;7.35;;;2.75;;
50122;SDS011;36021;48.670;6.184;2022-11-20T05:23:29;2.47;;;2.03;;
50122;SDS011;36021;48.670;6.184;2022-11-20T05:25:56;3.50;;;1.85;;
50122;SDS011;36021;48.670;6.184;2022-11-20T05:28:23;4.65;;;1.70;;
50122;SDS011;36021;48.670;6.184;2022-11-20T05:30:50;4.30;;;2.78;;
50122;SDS011;36021;48.670;6.184;2022-11-20T05:33:16;6.05;;;2.00;;
50122;SDS011;36021;48.670;6.184;2022-11-20T05:35:43;3.45;;;2.10;;
50122;SDS011;36021;48.670;6.184;2022-11-20T05:38:09;2.22;;;1.70;;
50122;SDS011;36021;48.670;6.184;2022-11-20T05:40:35;2.83;;;1.75;;
50122;SDS011;36021;48.670;6.184;2022-11-20T05:43:00;7.57;;;2.22;;
50122;SDS011;36021;48.670;6.184;2022-11-20T05:45:26;5.10;;;2.40;;
50122;SDS011;36021;48.670;6.184;2022-11-20T05:47:52;5.60;;;2.38;;
50122;SDS011;36021;48.670;6.184;2022-11-20T05:50:18;2.28;;;1.83;;
50122;SDS011;36021;48.670;6.184;2022-11-20T05:52:43;3.35;;;1.73;;
50122;SDS011;36021;48.670;6.184;2022-11-20T05:55:09;7.32;;;2.10;;
50122;SDS011;36021;48.670;6.184;2022-11-20T05:57:35;2.85;;;1.83;;
50122;SDS011;36021;48.670;6.184;2022-11-20T06:00:01;4.60;;;2.17;;
50122;SDS011;36021;48.670;6.184;2022-11-20T06:02:30;2.38;;;1.85;;
50122;SDS011;36021;48.670;6.184;2022-11-20T06:04:55;2.22;;;1.48;;
50122;SDS011;36021;48.670;6.184;2022-11-20T06:07:21;7.47;;;2.20;;
50122;SDS011;36021;48.670;6.184;2022-11-20T06:09:46;7.15;;;2.85;;
50122;SDS011;36021;48.670;6.184;2022-11-20T06:12:12;2.85;;;2.03;;
50122;SDS011;36021;48.670;6.184;2022-11-20T06:14:37;4.10;;;2.10;;
50122;SDS011;36021;48.670;6.184;2022-11-20T06:17:03;3.08;;;2.22;;
50122;SDS011;36021;48.670;6.184;2022-11-20T06:19:29;2.35;;;1.63;;
50122;SDS011;36021;48.670;6.184;2022-11-20T06:21:54;8.35;;;2.10;;
50122;SDS011;36021;48.670;6.184;2022-11-20T06:24:20;3.60;;;1.98;;
50122;SDS011;36021;48.670;6.184;2022-11-20T06:26:45;3.83;;;1.90;;
50122;SDS011;36021;48.670;6.184;2022-11-20T06:29:11;5.30;;;1.65;;
50122;SDS011;36021;48.670;6.184;2022-11-20T06:31:37;7.28;;;2.22;;
50122;SDS011;36021;48.670;6.184;2022-11-20T06:34:04;3.90;;;1.67;;
50122;SDS011;36021;48.670;6.184;2022-11-20T06:36:31;7.40;;;2.00;;
50122;SDS011;36021;48.670;6.184;2022-11-20T06:38:58;3.30;;;1.85;;
50122;SDS011;36021;48.670;6.184;2022-11-20T06:41:24;1.98;;;1.63;;
50122;SDS011;36021;48.670;6.184;2022-11-20T06:43:50;3.15;;;2.17;;
50122;SDS011;36021;48.670;6.184;2022-11-20T06:46:17;4.28;;;2.35;;
50122;SDS011;36021;48.670;6.184;2022-11-20T06:48:43;3.30;;;1.63;;
50122;SDS011;36021;48.670;6.184;2022-11-20T06:51:09;3.40;;;1.83;;
50122;SDS011;36021;48.670;6.184;2022-11-20T06:53:35;3.95;;;1.75;;
50122;SDS011;36021;48.670;6.184;2022-11-20T06:56:01;5.85;;;3.05;;
50122;SDS011;36021;48.670;6.184;2022-11-20T06:58:29;2.80;;;1.80;;
50122;SDS011;36021;48.670;6.184;2022-11-20T07:00:59;1.85;;;1.73;;
50122;SDS011;36021;48.670;6.184;2022-11-20T07:03:26;1.50;;;1.30;;
50122;SDS011;36021;48.670;6.184;2022-11-20T07:05:54;3.47;;;1.90;;
50122;SDS011;36021;48.670;6.184;2022-11-20T07:08:21;2.40;;;1.88;;
50122;SDS011;36021;48.670;6.184;2022-11-20T07:10:47;2.35;;;1.52;;
50122;SDS011;36021;48.670;6.184;2022-11-20T07:13:12;4.65;;;1.60;;
50122;SDS011;36021;48.670;6.184;2022-11-20T07:15:39;3.50;;;1.55;;
50122;SDS011;36021;48.670;6.184;2022-11-20T07:18:05;2.78;;;1.58;;
50122;SDS011;36021;48.670;6.184;2022-11-20T07:20:31;3.90;;;1.73;;
50122;SDS011;36021;48.670;6.184;2022-11-20T07:22:57;2.95;;;2.20;;
50122;SDS011;36021;48.670;6.184;2022-11-20T07:25:24;5.50;;;2.30;;
50122;SDS011;36021;48.670;6.184;2022-11-20T07:27:56;6.53;;;1.55;;
50122;SDS011;36021;48.670;6.184;2022-11-20T07:30:22;2.95;;;2.03;;
50122;SDS011;36021;48.670;6.184;2022-11-20T07:32:51;21.98;;;2.08;;
50122;SDS011;36021;48.670;6.184;2022-11-20T07:35:19;4.70;;;2.05;;
50122;SDS011;36021;48.670;6.184;2022-11-20T07:37:45;5.82;;;1.50;;
50122;SDS011;36021;48.670;6.184;2022-11-20T07:40:12;1.92;;;1.42;;
50122;SDS011;36021;48.670;6.184;2022-11-20T07:42:38;1.88;;;1.67;;
50122;SDS011;36021;48.670;6.184;2022-11-20T07:45:06;3.08;;;1.38;;
50122;SDS011;36021;48.670;6.184;2022-11-20T07:47:36;4.03;;;1.52;;
50122;SDS011;36021;48.670;6.184;2022-11-20T07:50:01;3.05;;;1.77;;
50122;SDS011;36021;48.670;6.184;2022-11-20T07:52:28;10.63;;;1.95;;
50122;SDS011;36021;48.670;6.184;2022-11-20T07:54:55;2.55;;;1.30;;
50122;SDS011;36021;48.670;6.184;2022-11-20T07:57:21;4.22;;;1.73;;
50122;SDS011;36021;48.670;6.184;2022-11-20T07:59:47;1.83;;;1.25;;
50122;SDS011;36021;48.670;6.184;2022-11-20T08:02:12;4.53;;;1.25;;
50122;SDS011;36021;48.670;6.184;2022-11-20T08:04:38;2.20;;;1.20;;
50122;SDS011;36021;48.670;6.184;2022-11-20T08:07:03;1.83;;;1.10;;
50122;SDS011;36021;48.670;6.184;2022-11-20T08:09:29;4.15;;;1.50;;
50122;SDS011;36021;48.670;6.184;2022-11-20T08:11:55;7.43;;;1.83;;
50122;SDS011;36021;48.670;6.184;2022-11-20T08:14:39;1.92;;;1.30;;
50122;SDS011;36021;48.670;6.184;2022-11-20T08:17:04;2.15;;;1.15;;
50122;SDS011;36021;48.670;6.184;2022-11-20T08:19:30;3.47;;;1.60;;
50122;SDS011;36021;48.670;6.184;2022-11-20T08:21:56;1.98;;;1.33;;
50122;SDS011;36021;48.670;6.184;2022-11-20T08:24:21;2.45;;;1.35;;
50122;SDS011;36021;48.670;6.184;2022-11-20T08:26:47;1.70;;;1.00;;
50122;SDS011;36021;48.670;6.184;2022-11-20T08:29:12;0.98;;;0.88;;
50122;SDS011;36021;48.670;6.184;2022-11-20T08:31:38;2.03;;;1.35;;
50122;SDS011;36021;48.670;6.184;2022-11-20T08:34:03;2.45;;;1.20;;
50122;SDS011;36021;48.670;6.184;2022-11-20T08:36:32;2.13;;;1.38;;
50122;SDS011;36021;48.670;6.184;2022-11-20T08:41:24;5.30;;;1.23;;
50122;SDS011;36021;48.670;6.184;2022-11-20T08:43:51;0.93;;;0.93;;
50122;SDS011;36021;48.670;6.184;2022-11-20T08:46:24;2.92;;;1.63;;
50122;SDS011;36021;48.670;6.184;2022-11-20T08:48:51;0.90;;;0.82;;
50122;SDS011;36021;48.670;6.184;2022-11-20T08:51:17;1.23;;;1.13;;
50122;SDS011;36021;48.670;6.184;2022-11-20T08:53:44;4.57;;;1.50;;
50122;SDS011;36021;48.670;6.184;2022-11-20T08:56:12;2.67;;;1.00;;
50122;SDS011;36021;48.670;6.184;2022-11-20T08:58:38;1.75;;;1.10;;
50122;SDS011;36021;48.670;6.184;2022-11-20T09:01:04;1.77;;;0.95;;
50122;SDS011;36021;48.670;6.184;2022-11-20T09:03:30;1.23;;;0.88;;
50122;SDS011;36021;48.670;6.184;2022-11-20T09:05:56;1.45;;;1.00;;
50122;SDS011;36021;48.670;6.184;2022-11-20T09:08:27;0.70;;;0.70;;
50122;SDS011;36021;48.670;6.184;2022-11-20T09:10:53;0.70;;;0.70;;
50122;SDS011;36021;48.670;6.184;2022-11-20T09:13:23;3.13;;;1.00;;
50122;SDS011;36021;48.670;6.184;2022-11-20T09:15:59;5.20;;;1.30;;
50122;SDS011;36021;48.670;6.184;2022-11-20T09:18:28;6.00;;;1.00;;
50122;SDS011;36021;48.670;6.184;2022-11-20T09:20:56;0.93;;;0.77;;
50122;SDS011;36021;48.670;6.184;2022-11-20T09:23:22;1.08;;;0.85;;
50122;SDS011;36021;48.670;6.184;2022-11-20T09:25:48;3.58;;;0.77;;
50122;SDS011;36021;48.670;6.184;2022-11-20T09:28:14;2.75;;;0.88;;
50122;SDS011;36021;48.670;6.184;2022-11-20T09:30:39;4.90;;;1.55;;
50122;SDS011;36021;48.670;6.184;2022-11-20T09:33:05;2.15;;;1.25;;
50122;SDS011;36021;48.670;6.184;2022-11-20T09:35:32;0.85;;;0.85;;
50122;SDS011;36021;48.670;6.184;2022-11-20T09:38:06;1.05;;;0.75;;
50122;SDS011;36021;48.670;6.184;2022-11-20T09:40:33;0.80;;;0.60;;
50122;SDS011;36021;48.670;6.184;2022-11-20T09:43:09;1.67;;;0.63;;
50122;SDS011;36021;48.670;6.184;2022-11-20T09:48:36;3.50;;;1.20;;
50122;SDS011;36021;48.670;6.184;2022-11-20T09:56:44;1.77;;;0.90;;
50122;SDS011;36021;48.670;6.184;2022-11-20T09:59:44;2.33;;;1.15;;
50122;SDS011;36021;48.670;6.184;2022-11-20T10:04:52;1.98;;;1.10;;
50122;SDS011;36021;48.670;6.184;2022-11-20T10:07:27;5.35;;;1.17;;
50122;SDS011;36021;48.670;6.184;2022-11-20T10:10:00;2.05;;;0.80;;
50122;SDS011;36021;48.670;6.184;2022-11-20T10:12:46;2.42;;;1.00;;
50122;SDS011;36021;48.670;6.184;2022-11-20T10:18:14;0.73;;;0.68;;
50122;SDS011;36021;48.670;6.184;2022-11-20T10:21:07;4.72;;;1.45;;
50122;SDS011;36021;48.670;6.184;2022-11-20T10:29:21;4.80;;;1.38;;
50122;SDS011;36021;48.670;6.184;2022-11-20T10:31:56;2.40;;;0.70;;
50122;SDS011;36021;48.670;6.184;2022-11-20T10:34:43;1.95;;;0.82;;
50122;SDS011;36021;48.670;6.184;2022-11-20T10:37:17;1.83;;;0.60;;
50122;SDS011;36021;48.670;6.184;2022-11-20T10:42:28;5.95;;;1.17;;
50122;SDS011;36021;48.670;6.184;2022-11-20T10:48:04;1.40;;;0.60;;
50122;SDS011;36021;48.670;6.184;2022-11-20T10:50:33;1.50;;;1.13;;
50122;SDS011;36021;48.670;6.184;2022-11-20T10:56:00;3.83;;;0.70;;
50122;SDS011;36021;48.670;6.184;2022-11-20T10:58:37;2.63;;;1.20;;
50122;SDS011;36021;48.670;6.184;2022-11-20T11:01:15;2.00;;;0.30;;
50122;SDS011;36021;48.670;6.184;2022-11-20T11:03:49;4.10;;;0.82;;
50122;SDS011;36021;48.670;6.184;2022-11-20T11:08:45;1.17;;;0.77;;
50122;SDS011;36021;48.670;6.184;2022-11-20T11:11:24;3.22;;;0.80;;
50122;SDS011;36021;48.670;6.184;2022-11-20T11:14:08;1.05;;;0.80;;
50122;SDS011;36021;48.670;6.184;2022-11-20T11:16:53;4.18;;;0.80;;
50122;SDS011;36021;48.670;6.184;2022-11-20T11:19:21;0.70;;;0.68;;
50122;SDS011;36021;48.670;6.184;2022-11-20T11:21:47;1.75;;;0.90;;
50122;SDS011;36021;48.670;6.184;2022-11-20T11:24:20;3.10;;;1.15;;
50122;SDS011;36021;48.670;6.184;2022-11-20T11:26:50;2.20;;;1.30;;
50122;SDS011;36021;48.670;6.184;2022-11-20T11:29:18;5.60;;;1.52;;
50122;SDS011;36021;48.670;6.184;2022-11-20T11:31:44;2.47;;;0.70;;
50122;SDS011;36021;48.670;6.184;2022-11-20T11:34:14;1.10;;;1.02;;
50122;SDS011;36021;48.670;6.184;2022-11-20T11:36:41;2.55;;;0.90;;
50122;SDS011;36021;48.670;6.184;2022-11-20T11:39:15;1.25;;;0.88;;
50122;SDS011;36021;48.670;6.184;2022-11-20T11:41:43;3.60;;;1.17;;
50122;SDS011;36021;48.670;6.184;2022-11-20T11:44:20;3.60;;;0.80;;
50122;SDS011;36021;48.670;6.184;2022-11-20T11:47:29;2.53;;;1.17;;
50122;SDS011;36021;48.670;6.184;2022-11-20T11:50:01;2.03;;;0.88;;
50122;SDS011;36021;48.670;6.184;2022-11-20T11:52:46;1.35;;;1.05;;
50122;SDS011;36021;48.670;6.184;2022-11-20T11:55:15;2.65;;;0.77;;
50122;SDS011;36021;48.670;6.184;2022-11-20T11:57:54;1.83;;;0.65;;
50122;SDS011;36021;48.670;6.184;2022-11-20T12:00:32;1.13;;;0.80;;
50122;SDS011;36021;48.670;6.184;2022-11-20T12:03:03;1.23;;;0.80;;
50122;SDS011;36021;48.670;6.184;2022-11-20T12:05:57;1.63;;;1.13;;
50122;SDS011;36021;48.670;6.184;2022-11-20T12:08:27;4.18;;;1.20;;
50122;SDS011;36021;48.670;6.184;2022-11-20T12:13:40;5.30;;;0.95;;
50122;SDS011;36021;48.670;6.184;2022-11-20T12:16:17;1.73;;;0.90;;
50122;SDS011;36021;48.670;6.184;2022-11-20T12:18:44;1.80;;;1.10;;
50122;SDS011;36021;48.670;6.184;2022-11-20T12:23:44;1.70;;;1.00;;
50122;SDS011;36021;48.670;6.184;2022-11-20T12:26:22;1.45;;;0.75;;
50122;SDS011;36021;48.670;6.184;2022-11-20T12:32:22;5.15;;;1.42;;
50122;SDS011;36021;48.670;6.184;2022-11-20T12:40:21;3.10;;;0.70;;
50122;SDS011;36021;48.670;6.184;2022-11-20T12:43:11;4.00;;;0.70;;
50122;SDS011;36021;48.670;6.184;2022-11-20T12:48:52;1.42;;;0.98;;
50122;SDS011;36021;48.670;6.184;2022-11-20T12:56:56;2.60;;;0.90;;
50122;SDS011;36021;48.670;6.184;2022-11-20T13:02:30;0.47;;;0.47;;
50122;SDS011;36021;48.670;6.184;2022-11-20T13:07:43;3.33;;;0.85;;
50122;SDS011;36021;48.670;6.184;2022-11-20T13:16:02;1.85;;;0.70;;
50122;SDS011;36021;48.670;6.184;2022-11-20T13:18:38;0.95;;;0.63;;
50122;SDS011;36021;48.670;6.184;2022-11-20T13:21:21;0.50;;;0.50;;
50122;SDS011;36021;48.670;6.184;2022-11-20T13:23:49;2.03;;;0.77;;
50122;SDS011;36021;48.670;6.184;2022-11-20T13:26:17;1.55;;;0.70;;
50122;SDS011;36021;48.670;6.184;2022-11-20T13:28:46;0.98;;;0.65;;
50122;SDS011;36021;48.670;6.184;2022-11-20T13:34:27;2.03;;;0.60;;
50122;SDS011;36021;48.670;6.184;2022-11-20T13:36:54;2.72;;;1.05;;
50122;SDS011;36021;48.670;6.184;2022-11-20T13:39:27;2.15;;;0.52;;
50122;SDS011;36021;48.670;6.184;2022-11-20T13:41:55;0.63;;;0.40;;
50122;SDS011;36021;48.670;6.184;2022-11-20T13:47:22;7.60;;;1.00;;
50122;SDS011;36021;48.670;6.184;2022-11-20T13:49:50;3.13;;;0.85;;
50122;SDS011;36021;48.670;6.184;2022-11-20T13:52:27;1.70;;;0.90;;
50122;SDS011;36021;48.670;6.184;2022-11-20T13:57:52;1.00;;;0.80;;
50122;SDS011;36021;48.670;6.184;2022-11-20T14:00:20;1.17;;;0.75;;
50122;SDS011;36021;48.670;6.184;2022-11-20T14:05:31;0.95;;;0.47;;
50122;SDS011;36021;48.670;6.184;2022-11-20T14:08:19;1.35;;;0.60;;
50122;SDS011;36021;48.670;6.184;2022-11-20T14:10:50;1.52;;;0.90;;
50122;SDS011;36021;48.670;6.184;2022-11-20T14:13:19;1.02;;;0.73;;
50122;SDS011;36021;48.670;6.184;2022-11-20T14:15:45;2.47;;;0.85;;
50122;SDS011;36021;48.670;6.184;2022-11-20T14:18:19;1.20;;;0.70;;
50122;SDS011;36021;48.670;6.184;2022-11-20T14:20:47;1.05;;;0.70;;
50122;SDS011;36021;48.670;6.184;2022-11-20T14:23:22;2.83;;;0.77;;
50122;SDS011;36021;48.670;6.184;2022-11-20T14:25:50;1.85;;;0.98;;
50122;SDS011;36021;48.670;6.184;2022-11-20T14:30:52;1.75;;;0.60;;
50122;SDS011;36021;48.670;6.184;2022-11-20T14:33:19;1.15;;;0.90;;
50122;SDS011;36021;48.670;6.184;2022-11-20T14:35:46;2.28;;;1.05;;
50122;SDS011;36021;48.670;6.184;2022-11-20T14:38:13;3.77;;;0.70;;
50122;SDS011;36021;48.670;6.184;2022-11-20T14:40:42;2.42;;;0.70;;
50122;SDS011;36021;48.670;6.184;2022-11-20T14:43:18;2.58;;;1.27;;
50122;SDS011;36021;48.670;6.184;2022-11-20T14:45:48;2.97;;;0.50;;
50122;SDS011;36021;48.670;6.184;2022-11-20T14:48:23;1.10;;;0.82;;
50122;SDS011;36021;48.670;6.184;2022-11-20T14:50:53;2.00;;;0.70;;
50122;SDS011;36021;48.670;6.184;2022-11-20T14:53:23;1.60;;;0.80;;
50122;SDS011;36021;48.670;6.184;2022-11-20T14:55:57;1.38;;;0.65;;
50122;SDS011;36021;48.670;6.184;2022-11-20T14:58:25;3.22;;;0.80;;
50122;SDS011;36021;48.670;6.184;2022-11-20T15:03:31;0.90;;;0.63;;
50122;SDS011;36021;48.670;6.184;2022-11-20T15:06:01;2.88;;;0.77;;
50122;SDS011;36021;48.670;6.184;2022-11-20T15:08:28;3.85;;;1.23;;
50122;SDS011;36021;48.670;6.184;2022-11-20T15:10:54;4.25;;;0.70;;
50122;SDS011;36021;48.670;6.184;2022-11-20T15:13:29;2.75;;;0.73;;
50122;SDS011;36021;48.670;6.184;2022-11-20T15:15:58;0.50;;;0.50;;
50122;SDS011;36021;48.670;6.184;2022-11-20T15:18:37;2.60;;;0.80;;
50122;SDS011;36021;48.670;6.184;2022-11-20T15:21:10;2.35;;;1.15;;
50122;SDS011;36021;48.670;6.184;2022-11-20T15:23:37;1.70;;;0.52;;
50122;SDS011;36021;48.670;6.184;2022-11-20T15:26:04;1.05;;;0.60;;
50122;SDS011;36021;48.670;6.184;2022-11-20T15:30:57;1.02;;;0.90;;
50122;SDS011;36021;48.670;6.184;2022-11-20T15:33:23;1.02;;;0.93;;
50122;SDS011;36021;48.670;6.184;2022-11-20T15:35:48;1.88;;;0.95;;
50122;SDS011;36021;48.670;6.184;2022-11-20T15:38:14;0.52;;;0.50;;
50122;SDS011;36021;48.670;6.184;2022-11-20T15:40:40;3.55;;;0.93;;
50122;SDS011;36021;48.670;6.184;2022-11-20T15:43:06;4.93;;;1.42;;
50122;SDS011;36021;48.670;6.184;2022-11-20T15:45:52;4.72;;;0.75;;
50122;SDS011;36021;48.670;6.184;2022-11-20T15:48:41;0.98;;;0.73;;
50122;SDS011;36021;48.670;6.184;2022-11-20T15:53:34;0.65;;;0.57;;
50122;SDS011;36021;48.670;6.184;2022-11-20T15:56:00;3.90;;;0.63;;
50122;SDS011;36021;48.670;6.184;2022-11-20T15:58:29;1.38;;;0.70;;
50122;SDS011;36021;48.670;6.184;2022-11-20T16:00:54;0.70;;;0.68;;
50122;SDS011;36021;48.670;6.184;2022-11-20T16:03:21;3.55;;;0.73;;
50122;SDS011;36021;48.670;6.184;2022-11-20T16:05:47;1.80;;;0.70;;
50122;SDS011;36021;48.670;6.184;2022-11-20T16:08:13;0.65;;;0.45;;
50122;SDS011;36021;48.670;6.184;2022-11-20T16:10:39;4.65;;;0.52;;
50122;SDS011;36021;48.670;6.184;2022-11-20T16:13:11;2.53;;;0.70;;
50122;SDS011;36021;48.670;6.184;2022-11-20T16:15:57;1.75;;;0.80;;
50122;SDS011;36021;48.670;6.184;2022-11-20T16:18:26;0.80;;;0.52;;
50122;SDS011;36021;48.670;6.184;2022-11-20T16:20:52;1.13;;;0.63;;
50122;SDS011;36021;48.670;6.184;2022-11-20T16:23:20;0.82;;;0.57;;
50122;SDS011;36021;48.670;6.184;2022-11-20T16:25:47;0.95;;;0.85;;
50122;SDS011;36021;48.670;6.184;2022-11-20T16:28:14;2.83;;;1.20;;
50122;SDS011;36021;48.670;6.184;2022-11-20T16:30:40;1.58;;;0.52;;
50122;SDS011;36021;48.670;6.184;2022-11-20T16:33:09;0.40;;;0.40;;
50122;SDS011;36021;48.670;6.184;2022-11-20T16:35:37;0.52;;;0.52;;
50122;SDS011;36021;48.670;6.184;2022-11-20T16:38:02;2.03;;;0.75;;